Time;durP1;ratioP1;P1;durP2;ratioP2;P2;SDS_P1;SDS_P2;PMS_P1;PMS_P2;Temp;Humidity;BMP_temperature;BMP_pressure;BME280_temperature;BME280_humidity;BME280_pressure;Samples;Min_cycle;Max_cycle;Signal;HPM_P1;HPM_P2
2023/06/29 00:01:42;;;;;;;11.63;8.48;;;;;;;;;;5036620;28;20041;-76
2023/06/29 00:04:09;;;;;;;10.25;8.50;;;;;;;;;;5040562;28;20055;-76
2023/06/29 00:06:37;;;;;;;12.48;9.50;;;;;;;;;;5052759;28;20044;-76
2023/06/29 00:09:04;;;;;;;12.68;9.32;;;;;;;;;;5052027;28;20503;-76
2023/06/29 00:11:30;;;;;;;10.35;8.65;;;;;;;;;;5042710;28;20504;-76
2023/06/29 00:13:56;;;;;;;11.52;9.25;;;;;;;;;;5049233;28;20123;-76
2023/06/29 00:16:22;;;;;;;13.75;10.13;;;;;;;;;;5058957;28;20154;-76
2023/06/29 00:18:49;;;;;;;13.07;10.30;;;;;;;;;;5050618;28;20092;-76
2023/06/29 00:21:16;;;;;;;12.77;10.32;;;;;;;;;;5054289;28;20055;-76
2023/06/29 00:23:42;;;;;;;14.85;10.50;;;;;;;;;;5054655;28;20134;-76
2023/06/29 00:26:10;;;;;;;14.65;10.40;;;;;;;;;;5060508;28;20059;-76
2023/06/29 00:28:36;;;;;;;13.88;10.25;;;;;;;;;;5049011;28;20041;-76
2023/06/29 00:31:02;;;;;;;12.40;10.02;;;;;;;;;;5047183;28;20041;-76
2023/06/29 00:33:29;;;;;;;13.65;9.70;;;;;;;;;;5056850;28;20056;-76
2023/06/29 00:35:55;;;;;;;12.32;10.40;;;;;;;;;;5051337;28;20474;-76
2023/06/29 00:38:21;;;;;;;14.63;10.25;;;;;;;;;;5035310;28;20037;-76
2023/06/29 00:40:48;;;;;;;14.57;10.25;;;;;;;;;;5056584;28;20059;-76
2023/06/29 00:43:14;;;;;;;14.70;9.98;;;;;;;;;;5037400;28;20049;-77
2023/06/29 00:45:40;;;;;;;13.73;10.45;;;;;;;;;;5036330;28;20045;-77
2023/06/29 00:48:07;;;;;;;13.07;9.88;;;;;;;;;;5041450;28;20048;-76
2023/06/29 00:50:33;;;;;;;14.40;10.25;;;;;;;;;;5039012;28;20045;-77
2023/06/29 00:52:59;;;;;;;17.02;10.52;;;;;;;;;;5050985;28;20052;-76
2023/06/29 00:55:25;;;;;;;17.70;11.52;;;;;;;;;;5041485;28;20041;-76
2023/06/29 00:57:51;;;;;;;18.75;12.32;;;;;;;;;;5055519;28;20103;-77
2023/06/29 01:00:18;;;;;;;17.08;12.95;;;;;;;;;;5037969;28;20044;-77
2023/06/29 01:02:44;;;;;;;18.65;13.73;;;;;;;;;;5041547;28;20049;-76
2023/06/29 01:05:11;;;;;;;21.67;15.23;;;;;;;;;;5040273;28;20049;-77
2023/06/29 01:07:43;;;;;;;21.40;14.65;;;;;;;;;;5043194;28;20041;-76
2023/06/29 01:10:11;;;;;;;20.90;14.32;;;;;;;;;;5047422;28;20405;-76
2023/06/29 01:12:38;;;;;;;21.92;14.07;;;;;;;;;;5054144;28;20049;-76
2023/06/29 01:15:05;;;;;;;21.83;14.25;;;;;;;;;;5070625;28;20076;-77
2023/06/29 01:17:32;;;;;;;20.13;14.40;;;;;;;;;;5055922;28;20045;-76
2023/06/29 01:19:58;;;;;;;18.52;13.43;;;;;;;;;;5064694;28;20044;-77
2023/06/29 01:22:28;;;;;;;18.35;14.27;;;;;;;;;;5040759;28;20494;-76
2023/06/29 01:24:55;;;;;;;21.00;13.98;;;;;;;;;;5051253;28;20048;-77
2023/06/29 01:27:24;;;;;;;21.10;14.90;;;;;;;;;;5041157;28;20381;-76
2023/06/29 01:29:53;;;;;;;22.15;16.05;;;;;;;;;;5034791;28;20045;-77
2023/06/29 01:32:19;;;;;;;20.70;14.98;;;;;;;;;;5064961;28;20502;-76
2023/06/29 01:34:45;;;;;;;20.50;14.10;;;;;;;;;;5049286;28;20044;-76
2023/06/29 01:37:13;;;;;;;20.85;14.55;;;;;;;;;;5036679;28;20069;-76
2023/06/29 01:39:57;;;;;;;22.17;14.90;;;;;;;;;;5048444;28;20094;-75
2023/06/29 01:42:25;;;;;;;21.15;15.10;;;;;;;;;;5044965;28;20146;-76
2023/06/29 01:44:53;;;;;;;22.42;14.63;;;;;;;;;;5039029;28;20488;-76
2023/06/29 01:47:21;;;;;;;21.95;15.65;;;;;;;;;;5045990;28;20464;-76
2023/06/29 01:49:48;;;;;;;18.23;14.15;;;;;;;;;;5041646;28;20049;-76
2023/06/29 01:52:14;;;;;;;22.23;14.85;;;;;;;;;;5057907;28;20047;-76
2023/06/29 01:54:40;;;;;;;21.70;14.30;;;;;;;;;;5043411;28;20102;-77
2023/06/29 01:57:06;;;;;;;21.48;15.52;;;;;;;;;;5043564;28;20119;-77
2023/06/29 01:59:33;;;;;;;21.15;15.30;;;;;;;;;;5056062;28;20056;-76
2023/06/29 02:01:59;;;;;;;19.50;14.75;;;;;;;;;;5044935;28;20072;-76
2023/06/29 02:04:25;;;;;;;23.83;14.73;;;;;;;;;;5054732;28;20045;-76
2023/06/29 02:06:51;;;;;;;20.05;14.60;;;;;;;;;;5052390;28;20121;-76
2023/06/29 02:09:17;;;;;;;17.65;13.23;;;;;;;;;;5043779;28;20465;-76
2023/06/29 02:11:43;;;;;;;17.77;13.07;;;;;;;;;;5052231;28;20386;-76
2023/06/29 02:14:09;;;;;;;16.25;12.70;;;;;;;;;;5050165;28;20527;-76
2023/06/29 02:16:35;;;;;;;17.02;11.77;;;;;;;;;;5050575;28;20041;-76
2023/06/29 02:19:01;;;;;;;17.83;11.88;;;;;;;;;;5049409;28;20052;-75
2023/06/29 02:21:28;;;;;;;16.38;12.50;;;;;;;;;;5057239;28;20056;-76
2023/06/29 02:23:54;;;;;;;19.35;13.25;;;;;;;;;;5052348;28;20044;-76
2023/06/29 02:26:20;;;;;;;18.63;12.60;;;;;;;;;;5045786;28;20075;-76
2023/06/29 02:28:47;;;;;;;17.05;12.20;;;;;;;;;;5047316;28;20055;-76
2023/06/29 02:31:13;;;;;;;18.27;13.07;;;;;;;;;;5040568;28;20073;-76
2023/06/29 02:33:39;;;;;;;18.80;12.88;;;;;;;;;;5042274;28;20508;-76
2023/06/29 02:36:05;;;;;;;17.90;13.05;;;;;;;;;;5055814;28;20454;-76
2023/06/29 02:38:31;;;;;;;16.35;11.65;;;;;;;;;;5044174;28;20131;-75
2023/06/29 02:40:57;;;;;;;18.05;11.73;;;;;;;;;;5057182;28;20044;-76
2023/06/29 02:43:23;;;;;;;18.30;13.43;;;;;;;;;;5038402;28;20432;-76
2023/06/29 02:45:49;;;;;;;17.50;12.80;;;;;;;;;;5045059;28;20053;-76
2023/06/29 02:48:15;;;;;;;17.25;12.70;;;;;;;;;;5042940;28;21783;-76
2023/06/29 02:50:41;;;;;;;18.38;12.48;;;;;;;;;;5042609;28;20132;-76
2023/06/29 02:53:07;;;;;;;18.92;13.00;;;;;;;;;;5040818;28;20068;-76
2023/06/29 02:55:33;;;;;;;19.38;14.57;;;;;;;;;;5044205;28;20065;-75
2023/06/29 02:57:59;;;;;;;20.42;13.65;;;;;;;;;;5055453;28;20611;-76
2023/06/29 03:00:25;;;;;;;20.80;13.85;;;;;;;;;;5042704;28;20053;-75
2023/06/29 03:02:51;;;;;;;21.38;15.10;;;;;;;;;;5033155;28;20084;-76
2023/06/29 03:05:17;;;;;;;21.52;14.93;;;;;;;;;;5053622;28;20126;-76
2023/06/29 03:07:43;;;;;;;20.60;14.73;;;;;;;;;;5041419;28;20047;-76
2023/06/29 03:10:09;;;;;;;23.15;15.30;;;;;;;;;;5047540;28;20057;-75
2023/06/29 03:12:35;;;;;;;20.35;14.98;;;;;;;;;;5041218;28;20045;-75
2023/06/29 03:15:01;;;;;;;20.30;15.20;;;;;;;;;;5042089;28;20044;-76
2023/06/29 03:17:27;;;;;;;23.38;15.63;;;;;;;;;;5066562;28;20111;-75
2023/06/29 03:19:54;;;;;;;24.42;15.40;;;;;;;;;;5063938;28;20456;-75
2023/06/29 03:22:20;;;;;;;21.90;14.65;;;;;;;;;;5069694;28;20106;-76
2023/06/29 03:24:46;;;;;;;22.23;14.18;;;;;;;;;;5056105;28;20519;-75
2023/06/29 03:27:12;;;;;;;21.80;15.55;;;;;;;;;;5049076;28;20561;-75
2023/06/29 03:29:38;;;;;;;23.00;16.73;;;;;;;;;;5062036;28;20048;-76
2023/06/29 03:32:04;;;;;;;24.35;16.77;;;;;;;;;;5060513;28;20616;-75
2023/06/29 03:34:30;;;;;;;23.02;16.30;;;;;;;;;;5049937;28;20056;-75
2023/06/29 03:36:57;;;;;;;23.90;16.80;;;;;;;;;;5048181;28;20044;-75
2023/06/29 03:39:23;;;;;;;23.35;15.95;;;;;;;;;;5043088;28;20060;-75
2023/06/29 03:41:49;;;;;;;21.83;15.40;;;;;;;;;;5061421;28;20052;-76
2023/06/29 03:44:15;;;;;;;25.75;16.88;;;;;;;;;;5060872;28;20061;-75
2023/06/29 03:46:41;;;;;;;21.95;15.88;;;;;;;;;;5075193;28;20136;-76
2023/06/29 03:49:07;;;;;;;23.98;17.50;;;;;;;;;;5057447;28;20041;-75
2023/06/29 03:51:33;;;;;;;24.90;17.63;;;;;;;;;;5055643;28;20060;-75
2023/06/29 03:53:59;;;;;;;26.02;18.17;;;;;;;;;;5045739;28;20049;-75
2023/06/29 03:56:25;;;;;;;24.95;17.48;;;;;;;;;;5064006;28;20499;-75
2023/06/29 03:58:52;;;;;;;30.67;18.75;;;;;;;;;;5054332;28;20045;-75
2023/06/29 04:01:18;;;;;;;26.85;18.27;;;;;;;;;;5047947;28;20040;-75
2023/06/29 04:03:44;;;;;;;25.52;17.75;;;;;;;;;;5042699;28;20045;-75
2023/06/29 04:06:10;;;;;;;23.02;14.65;;;;;;;;;;5049050;28;20052;-75
2023/06/29 04:08:36;;;;;;;26.63;18.45;;;;;;;;;;5036305;28;20045;-75
2023/06/29 04:11:02;;;;;;;26.80;18.75;;;;;;;;;;5043505;28;20040;-75
2023/06/29 04:13:28;;;;;;;27.08;19.23;;;;;;;;;;5047362;28;20041;-75
2023/06/29 04:15:54;;;;;;;28.35;18.92;;;;;;;;;;5064395;28;20465;-75
2023/06/29 04:18:20;;;;;;;28.92;20.00;;;;;;;;;;5039825;28;20504;-75
2023/06/29 04:20:46;;;;;;;32.00;21.13;;;;;;;;;;5048262;28;20037;-77
2023/06/29 04:23:14;;;;;;;30.88;20.35;;;;;;;;;;5067213;28;20096;-75
2023/06/29 04:25:44;;;;;;;26.08;18.42;;;;;;;;;;5048785;28;20354;-74
2023/06/29 04:28:13;;;;;;;32.63;19.95;;;;;;;;;;5053896;28;20163;-75
2023/06/29 04:30:40;;;;;;;27.35;18.38;;;;;;;;;;5042271;28;20044;-75
2023/06/29 04:33:10;;;;;;;28.45;19.70;;;;;;;;;;5048272;28;20045;-75
2023/06/29 04:35:43;;;;;;;28.13;18.27;;;;;;;;;;5040782;28;20515;-74
2023/06/29 04:38:10;;;;;;;31.10;20.40;;;;;;;;;;5035558;28;20519;-75
2023/06/29 04:40:36;;;;;;;28.75;19.70;;;;;;;;;;5039038;28;20049;-74
2023/06/29 04:43:03;;;;;;;24.98;18.67;;;;;;;;;;5044869;28;20053;-75
2023/06/29 04:45:32;;;;;;;27.13;19.20;;;;;;;;;;5045767;28;20063;-75
2023/06/29 04:47:58;;;;;;;27.50;18.55;;;;;;;;;;5047374;28;20123;-75
2023/06/29 04:50:25;;;;;;;28.63;19.23;;;;;;;;;;5043948;28;20433;-75
2023/06/29 04:53:09;;;;;;;29.85;19.77;;;;;;;;;;5047026;28;20053;-75
2023/06/29 04:55:39;;;;;;;28.90;20.27;;;;;;;;;;5039868;28;20045;-75
2023/06/29 04:58:05;;;;;;;31.25;21.20;;;;;;;;;;5047658;28;20045;-75
2023/06/29 05:00:32;;;;;;;30.02;20.63;;;;;;;;;;5048382;28;20041;-75
2023/06/29 05:02:59;;;;;;;32.35;21.67;;;;;;;;;;5042035;28;20119;-75
2023/06/29 05:05:25;;;;;;;31.85;21.88;;;;;;;;;;5050887;28;20059;-75
2023/06/29 05:07:51;;;;;;;32.45;22.48;;;;;;;;;;5055372;28;20051;-75
2023/06/29 05:10:17;;;;;;;32.35;22.05;;;;;;;;;;5057904;28;20088;-74
2023/06/29 05:12:43;;;;;;;35.38;22.15;;;;;;;;;;5051595;28;20044;-75
2023/06/29 05:15:09;;;;;;;39.28;25.42;;;;;;;;;;5061790;28;20127;-74
2023/06/29 05:17:35;;;;;;;33.10;22.98;;;;;;;;;;5055262;28;20048;-74
2023/06/29 05:20:06;;;;;;;31.98;21.17;;;;;;;;;;5060217;28;20392;-73
2023/06/29 05:22:32;;;;;;;31.92;21.17;;;;;;;;;;5072288;28;20119;-74
2023/06/29 05:24:58;;;;;;;30.10;21.08;;;;;;;;;;5060534;28;20124;-74
2023/06/29 05:27:24;;;;;;;31.25;21.27;;;;;;;;;;5049419;28;20045;-73
2023/06/29 05:29:50;;;;;;;31.10;20.20;;;;;;;;;;5049395;28;20440;-74
2023/06/29 05:32:16;;;;;;;31.85;20.65;;;;;;;;;;5041800;28;20389;-74
2023/06/29 05:34:42;;;;;;;31.40;20.42;;;;;;;;;;5040990;28;20067;-74
2023/06/29 05:37:08;;;;;;;30.77;22.10;;;;;;;;;;5050180;28;20129;-74
2023/06/29 05:39:34;;;;;;;27.75;20.00;;;;;;;;;;5048484;28;20060;-74
2023/06/29 05:42:00;;;;;;;29.23;20.08;;;;;;;;;;5038919;28;20064;-73
2023/06/29 05:44:26;;;;;;;32.70;21.42;;;;;;;;;;5048408;28;20420;-74
2023/06/29 05:46:52;;;;;;;34.08;21.60;;;;;;;;;;5053564;28;20494;-74
2023/06/29 05:49:18;;;;;;;29.90;21.40;;;;;;;;;;5048660;28;20114;-74
2023/06/29 05:51:44;;;;;;;34.00;21.48;;;;;;;;;;5046100;28;20080;-74
2023/06/29 05:54:10;;;;;;;34.28;23.48;;;;;;;;;;5064543;28;20041;-73
2023/06/29 05:56:36;;;;;;;31.20;21.40;;;;;;;;;;5053036;28;20041;-75
2023/06/29 05:59:02;;;;;;;32.20;22.67;;;;;;;;;;5049460;28;20056;-74
2023/06/29 06:01:28;;;;;;;31.08;22.25;;;;;;;;;;5045929;28;20400;-73
2023/06/29 06:03:54;;;;;;;35.08;22.30;;;;;;;;;;5049395;28;20102;-74
2023/06/29 06:06:21;;;;;;;31.52;20.88;;;;;;;;;;5040580;28;20131;-74
2023/06/29 06:08:47;;;;;;;32.13;21.13;;;;;;;;;;5037088;28;20575;-74
2023/06/29 06:11:15;;;;;;;29.55;21.48;;;;;;;;;;5049682;28;20055;-74
2023/06/29 06:13:42;;;;;;;33.05;23.08;;;;;;;;;;5051341;28;20052;-74
2023/06/29 06:16:08;;;;;;;33.47;20.70;;;;;;;;;;5061765;28;20054;-74
2023/06/29 06:18:34;;;;;;;35.03;21.63;;;;;;;;;;5054773;28;20123;-73
2023/06/29 06:21:00;;;;;;;30.95;21.50;;;;;;;;;;5054709;28;20064;-74
2023/06/29 06:23:26;;;;;;;33.75;21.80;;;;;;;;;;5051135;28;20044;-73
2023/06/29 06:25:52;;;;;;;37.70;24.02;;;;;;;;;;5037754;28;20042;-74
2023/06/29 06:28:19;;;;;;;32.78;21.55;;;;;;;;;;5049764;28;20131;-74
2023/06/29 06:30:46;;;;;;;35.63;22.92;;;;;;;;;;5049192;28;20044;-74
2023/06/29 06:33:14;;;;;;;32.40;22.27;;;;;;;;;;5047867;28;20476;-74
2023/06/29 06:35:41;;;;;;;34.28;23.00;;;;;;;;;;5040958;28;20083;-75
2023/06/29 06:38:07;;;;;;;34.80;23.58;;;;;;;;;;5056923;28;20135;-74
2023/06/29 06:40:33;;;;;;;33.67;23.52;;;;;;;;;;5041433;28;20044;-73
2023/06/29 06:42:59;;;;;;;34.40;22.42;;;;;;;;;;5039870;28;20064;-73
2023/06/29 06:45:25;;;;;;;36.17;22.50;;;;;;;;;;5032591;28;20049;-73
2023/06/29 06:47:51;;;;;;;36.22;23.02;;;;;;;;;;5049369;28;20045;-72
2023/06/29 06:50:17;;;;;;;33.63;22.75;;;;;;;;;;5035616;28;20534;-72
2023/06/29 06:52:43;;;;;;;37.58;24.08;;;;;;;;;;5052042;28;20048;-74
2023/06/29 06:55:10;;;;;;;32.13;22.50;;;;;;;;;;5050934;28;20051;-75
2023/06/29 06:57:36;;;;;;;36.95;24.23;;;;;;;;;;5039478;28;20477;-73
2023/06/29 07:00:03;;;;;;;37.53;24.20;;;;;;;;;;5052848;28;20119;-73
2023/06/29 07:02:29;;;;;;;36.15;23.23;;;;;;;;;;5049278;28;20052;-73
2023/06/29 07:04:55;;;;;;;36.50;24.40;;;;;;;;;;5051127;28;20230;-74
2023/06/29 07:07:21;;;;;;;34.28;23.70;;;;;;;;;;5051095;28;20051;-74
2023/06/29 07:09:47;;;;;;;34.17;23.80;;;;;;;;;;5054119;28;20389;-74
2023/06/29 07:12:13;;;;;;;40.05;25.60;;;;;;;;;;5051114;28;20086;-73
2023/06/29 07:14:39;;;;;;;39.15;24.15;;;;;;;;;;5052793;28;20110;-74
2023/06/29 07:17:06;;;;;;;35.53;25.02;;;;;;;;;;5050236;28;20424;-74
2023/06/29 07:19:32;;;;;;;38.95;25.20;;;;;;;;;;5044001;28;20049;-73
2023/06/29 07:21:58;;;;;;;43.42;27.17;;;;;;;;;;5059082;28;20037;-74
2023/06/29 07:24:24;;;;;;;43.75;25.52;;;;;;;;;;5062971;28;20086;-74
2023/06/29 07:26:50;;;;;;;38.63;25.92;;;;;;;;;;5058205;28;20065;-74
2023/06/29 07:29:17;;;;;;;39.13;27.25;;;;;;;;;;5046989;28;20054;-73
2023/06/29 07:31:43;;;;;;;41.83;27.42;;;;;;;;;;5047495;28;20098;-74
2023/06/29 07:34:09;;;;;;;43.58;28.50;;;;;;;;;;5052634;28;20390;-73
2023/06/29 07:36:35;;;;;;;38.83;26.88;;;;;;;;;;5039959;28;20069;-73
2023/06/29 07:39:02;;;;;;;41.58;28.20;;;;;;;;;;5057408;28;20048;-74
2023/06/29 07:41:28;;;;;;;42.90;26.55;;;;;;;;;;5066131;28;20182;-73
2023/06/29 07:43:58;;;;;;;43.72;27.02;;;;;;;;;;5066017;28;20048;-75
2023/06/29 07:46:24;;;;;;;46.50;25.50;;;;;;;;;;5049279;28;20041;-76
2023/06/29 07:48:51;;;;;;;43.88;28.70;;;;;;;;;;5064995;28;20040;-75
2023/06/29 07:51:17;;;;;;;39.20;26.77;;;;;;;;;;5058609;28;20044;-75
2023/06/29 07:53:43;;;;;;;43.65;27.25;;;;;;;;;;5052148;28;20036;-75
2023/06/29 07:56:09;;;;;;;43.22;27.35;;;;;;;;;;5057149;28;20048;-74
2023/06/29 07:58:36;;;;;;;38.65;25.95;;;;;;;;;;5050297;28;20045;-74
2023/06/29 08:01:02;;;;;;;39.30;24.95;;;;;;;;;;5065153;28;20044;-75
2023/06/29 08:03:28;;;;;;;38.20;26.08;;;;;;;;;;5040931;28;20728;-74
2023/06/29 08:05:54;;;;;;;38.38;26.85;;;;;;;;;;5036423;28;20049;-75
2023/06/29 08:08:21;;;;;;;37.90;26.70;;;;;;;;;;5033427;28;20065;-75
2023/06/29 08:10:48;;;;;;;39.50;26.77;;;;;;;;;;5034422;28;20447;-75
2023/06/29 08:13:14;;;;;;;38.63;27.55;;;;;;;;;;5036616;28;20155;-74
2023/06/29 08:15:40;;;;;;;38.70;26.17;;;;;;;;;;5034092;28;20524;-76
2023/06/29 08:18:06;;;;;;;31.10;22.30;;;;;;;;;;5036842;28;20049;-74
2023/06/29 08:20:32;;;;;;;33.83;23.15;;;;;;;;;;5039560;28;20519;-74
2023/06/29 08:22:58;;;;;;;33.35;23.88;;;;;;;;;;5036156;28;20040;-74
2023/06/29 08:25:24;;;;;;;36.33;24.77;;;;;;;;;;5040383;28;20048;-74
2023/06/29 08:27:50;;;;;;;32.95;23.58;;;;;;;;;;5037295;28;20143;-74
2023/06/29 08:30:16;;;;;;;33.10;23.02;;;;;;;;;;5038977;28;20064;-74
2023/06/29 08:32:43;;;;;;;36.05;24.42;;;;;;;;;;5062206;28;20127;-75
2023/06/29 08:35:09;;;;;;;35.03;22.65;;;;;;;;;;5041467;28;20488;-74
2023/06/29 08:37:36;;;;;;;35.15;22.17;;;;;;;;;;5033612;28;20080;-74
2023/06/29 08:40:06;;;;;;;30.40;19.95;;;;;;;;;;5039011;28;20108;-73
2023/06/29 08:42:32;;;;;;;35.35;22.40;;;;;;;;;;5040961;28;20122;-73
2023/06/29 08:44:58;;;;;;;32.13;21.13;;;;;;;;;;5040982;28;20136;-74
2023/06/29 08:47:27;;;;;;;34.17;24.45;;;;;;;;;;5046867;28;20140;-75
2023/06/29 08:49:56;;;;;;;31.60;23.55;;;;;;;;;;5046426;28;20056;-75
2023/06/29 08:52:25;;;;;;;35.35;24.58;;;;;;;;;;5044595;28;20037;-74
2023/06/29 08:54:52;;;;;;;36.85;26.13;;;;;;;;;;5041934;28;20045;-75
2023/06/29 08:57:18;;;;;;;39.00;25.35;;;;;;;;;;5035051;28;20175;-74
2023/06/29 08:59:44;;;;;;;34.85;25.40;;;;;;;;;;5042349;28;20041;-74
2023/06/29 09:02:11;;;;;;;37.17;26.13;;;;;;;;;;5038376;28;20047;-74
2023/06/29 09:04:37;;;;;;;36.42;25.15;;;;;;;;;;5048717;28;20041;-74
2023/06/29 09:07:03;;;;;;;36.63;24.70;;;;;;;;;;5051121;28;20072;-74
2023/06/29 09:09:30;;;;;;;30.85;23.00;;;;;;;;;;5048883;28;20493;-74
2023/06/29 09:11:56;;;;;;;35.03;25.52;;;;;;;;;;5045470;28;20080;-74
2023/06/29 09:14:23;;;;;;;34.28;24.83;;;;;;;;;;5056556;28;20083;-74
2023/06/29 09:16:52;;;;;;;35.13;25.42;;;;;;;;;;5039586;28;20110;-75
2023/06/29 09:19:19;;;;;;;35.15;24.77;;;;;;;;;;5042525;28;20086;-74
2023/06/29 09:21:47;;;;;;;38.03;25.67;;;;;;;;;;5032994;28;20041;-75
2023/06/29 09:24:14;;;;;;;34.65;24.30;;;;;;;;;;5045039;28;20064;-74
2023/06/29 09:26:40;;;;;;;32.83;23.40;;;;;;;;;;5043245;28;20078;-74
2023/06/29 09:29:07;;;;;;;40.13;23.35;;;;;;;;;;5042878;28;20051;-74
2023/06/29 09:31:35;;;;;;;33.30;23.65;;;;;;;;;;5059342;28;20517;-74
2023/06/29 09:34:17;;;;;;;32.60;24.38;;;;;;;;;;5042669;28;20044;-75
2023/06/29 09:36:43;;;;;;;34.73;24.03;;;;;;;;;;5042125;28;20402;-75
2023/06/29 09:39:10;;;;;;;33.42;23.23;;;;;;;;;;5044200;28;20047;-74
2023/06/29 09:41:52;;;;;;;31.25;22.23;;;;;;;;;;5062610;28;20162;-74
2023/06/29 09:44:19;;;;;;;33.30;22.23;;;;;;;;;;5049042;28;20059;-74
2023/06/29 09:47:03;;;;;;;31.98;22.25;;;;;;;;;;5053219;28;20052;-75
2023/06/29 09:49:29;;;;;;;29.17;22.27;;;;;;;;;;5048126;28;20515;-75
2023/06/29 09:52:02;;;;;;;33.78;21.95;;;;;;;;;;5033700;28;20079;-74
2023/06/29 09:54:28;;;;;;;;;;;;;;;;;;5044932;28;20045;-73
2023/06/29 09:56:54;;;;;;;34.95;22.38;;;;;;;;;;5049983;28;20280;-74
2023/06/29 09:59:21;;;;;;;28.45;20.13;;;;;;;;;;5039639;28;20041;-74
2023/06/29 10:01:47;;;;;;;30.40;21.02;;;;;;;;;;5043042;28;20052;-74
2023/06/29 10:04:13;;;;;;;32.42;21.80;;;;;;;;;;5048339;28;20128;-74
2023/06/29 10:06:44;;;;;;;35.13;23.75;;;;;;;;;;5052102;28;20132;-74
2023/06/29 10:09:13;;;;;;;37.75;22.20;;;;;;;;;;5048834;28;20159;-74
2023/06/29 10:11:40;;;;;;;32.45;23.23;;;;;;;;;;5049156;28;20486;-74
2023/06/29 10:14:08;;;;;;;30.52;21.35;;;;;;;;;;5049810;28;20174;-74
2023/06/29 10:16:37;;;;;;;36.15;24.48;;;;;;;;;;5050907;28;20085;-74
2023/06/29 10:19:15;;;;;;;35.58;23.73;;;;;;;;;;5043533;28;20530;-74
2023/06/29 10:21:42;;;;;;;31.35;22.13;;;;;;;;;;5051421;28;20635;-75
2023/06/29 10:24:09;;;;;;;33.92;22.67;;;;;;;;;;5043888;28;20045;-74
2023/06/29 10:26:35;;;;;;;40.03;24.10;;;;;;;;;;5046423;28;20045;-74
2023/06/29 10:29:01;;;;;;;35.22;22.23;;;;;;;;;;5040481;28;20134;-74
2023/06/29 10:31:32;;;;;;;37.85;23.00;;;;;;;;;;5035082;28;20119;-74
2023/06/29 10:33:58;;;;;;;32.80;23.20;;;;;;;;;;5036517;28;20049;-74
2023/06/29 10:36:25;;;;;;;33.33;21.20;;;;;;;;;;5050992;28;20174;-75
2023/06/29 10:38:51;;;;;;;33.15;20.20;;;;;;;;;;5048513;28;20048;-75
2023/06/29 10:41:28;;;;;;;36.00;22.23;;;;;;;;;;5053081;28;20048;-74
2023/06/29 10:43:55;;;;;;;36.20;23.65;;;;;;;;;;5032952;28;20080;-74
2023/06/29 10:46:54;;;;;;;37.45;23.42;;;;;;;;;;5049725;28;20041;-74
2023/06/29 10:49:28;;;;;;;35.80;22.90;;;;;;;;;;5008336;28;20065;-74
2023/06/29 10:51:55;;;;;;;33.40;21.45;;;;;;;;;;5058196;28;20056;-74
2023/06/29 10:54:22;;;;;;;30.15;21.40;;;;;;;;;;5045017;28;20202;-74
2023/06/29 10:56:58;;;;;;;31.48;22.45;;;;;;;;;;5037040;28;20045;-74
2023/06/29 10:59:24;;;;;;;38.00;22.25;;;;;;;;;;5049241;28;20409;-74
2023/06/29 11:01:51;;;;;;;34.30;23.85;;;;;;;;;;5044969;28;20033;-74
2023/06/29 11:04:17;;;;;;;33.42;21.83;;;;;;;;;;5048454;28;20052;-75
2023/06/29 11:06:43;;;;;;;32.35;22.20;;;;;;;;;;5046403;28;20401;-75
2023/06/29 11:09:13;;;;;;;31.02;20.40;;;;;;;;;;5045630;28;20123;-74
2023/06/29 11:11:39;;;;;;;32.92;21.83;;;;;;;;;;5052211;28;20080;-74
2023/06/29 11:14:05;;;;;;;30.08;21.70;;;;;;;;;;5050717;28;20044;-74
2023/06/29 11:16:33;;;;;;;33.33;22.45;;;;;;;;;;5052451;28;20089;-74
2023/06/29 11:19:02;;;;;;;36.90;22.08;;;;;;;;;;5050936;28;20544;-74
2023/06/29 11:21:28;;;;;;;36.95;23.73;;;;;;;;;;5049320;28;20594;-74
2023/06/29 11:23:55;;;;;;;33.28;22.05;;;;;;;;;;5044476;28;20040;-74
2023/06/29 11:26:21;;;;;;;32.22;19.88;;;;;;;;;;5048349;28;20057;-74
2023/06/29 11:28:51;;;;;;;36.78;24.00;;;;;;;;;;5049308;28;20045;-75
2023/06/29 11:31:17;;;;;;;31.73;22.17;;;;;;;;;;5043979;28;20548;-75
2023/06/29 11:33:47;;;;;;;36.42;22.45;;;;;;;;;;5050070;28;20097;-74
2023/06/29 11:36:13;;;;;;;35.72;22.25;;;;;;;;;;5050771;28;20045;-74
2023/06/29 11:38:39;;;;;;;31.70;20.60;;;;;;;;;;5063147;28;20481;-74
2023/06/29 11:41:06;;;;;;;35.50;20.98;;;;;;;;;;5032874;28;20045;-73
2023/06/29 11:43:32;;;;;;;34.53;22.15;;;;;;;;;;5049866;28;20377;-74
2023/06/29 11:45:58;;;;;;;31.73;21.65;;;;;;;;;;5054794;28;20111;-74
2023/06/29 11:48:24;;;;;;;31.45;21.25;;;;;;;;;;5044380;28;20447;-73
2023/06/29 11:50:50;;;;;;;36.20;21.83;;;;;;;;;;5044171;28;20408;-75
2023/06/29 11:53:16;;;;;;;33.20;20.45;;;;;;;;;;5047569;28;20405;-74
2023/06/29 11:55:54;;;;;;;37.55;21.27;;;;;;;;;;5046291;28;20065;-74
2023/06/29 11:58:20;;;;;;;34.03;20.80;;;;;;;;;;5042846;28;20057;-74
2023/06/29 12:00:55;;;;;;;35.38;22.75;;;;;;;;;;5034223;28;20094;-74
2023/06/29 12:03:21;;;;;;;34.30;21.40;;;;;;;;;;5043138;28;20476;-74
2023/06/29 12:05:47;;;;;;;33.08;21.63;;;;;;;;;;5038894;28;20401;-74
2023/06/29 12:08:15;;;;;;;29.27;20.33;;;;;;;;;;5047163;28;20102;-74
2023/06/29 12:10:41;;;;;;;36.78;23.55;;;;;;;;;;5042862;28;20546;-74
2023/06/29 12:13:09;;;;;;;35.72;21.80;;;;;;;;;;5035554;28;20041;-74
2023/06/29 12:15:35;;;;;;;37.30;23.05;;;;;;;;;;5054710;28;20118;-73
2023/06/29 12:18:23;;;;;;;35.95;23.73;;;;;;;;;;5044509;28;20049;-74
2023/06/29 12:20:49;;;;;;;41.67;25.92;;;;;;;;;;5042880;28;20052;-75
2023/06/29 12:23:15;;;;;;;47.35;29.35;;;;;;;;;;5031899;28;20052;-74
2023/06/29 12:25:46;;;;;;;50.15;30.75;;;;;;;;;;5058889;28;20060;-75
2023/06/29 12:28:12;;;;;;;54.55;29.88;;;;;;;;;;5040889;28;20051;-74
2023/06/29 12:30:39;;;;;;;55.63;31.52;;;;;;;;;;5034547;28;20095;-74
2023/06/29 12:33:05;;;;;;;51.95;29.58;;;;;;;;;;5039354;28;20080;-74
2023/06/29 12:35:32;;;;;;;49.88;29.63;;;;;;;;;;5047455;28;20095;-73
2023/06/29 12:37:58;;;;;;;46.67;27.27;;;;;;;;;;5034430;28;20057;-74
2023/06/29 12:40:24;;;;;;;45.50;28.02;;;;;;;;;;5073830;28;20042;-74
2023/06/29 12:42:51;;;;;;;40.28;27.33;;;;;;;;;;5046662;28;20056;-73
2023/06/29 12:45:18;;;;;;;41.42;25.77;;;;;;;;;;5035889;28;20501;-74
2023/06/29 12:47:44;;;;;;;37.75;23.30;;;;;;;;;;5043269;28;20104;-74
2023/06/29 12:50:10;;;;;;;33.50;20.77;;;;;;;;;;5035548;28;20041;-73
2023/06/29 12:52:36;;;;;;;33.75;22.63;;;;;;;;;;5038208;28;20081;-73
2023/06/29 12:55:02;;;;;;;32.40;21.20;;;;;;;;;;5036689;28;20045;-73
2023/06/29 12:57:28;;;;;;;36.65;22.00;;;;;;;;;;5047226;28;20048;-73
2023/06/29 12:59:58;;;;;;;35.78;21.20;;;;;;;;;;5037551;28;20037;-73
2023/06/29 13:02:25;;;;;;;27.15;18.30;;;;;;;;;;5048788;28;20508;-73
2023/06/29 13:04:51;;;;;;;27.38;17.92;;;;;;;;;;5050441;28;20044;-75
2023/06/29 13:07:17;;;;;;;24.60;13.98;;;;;;;;;;5054331;28;20165;-74
2023/06/29 13:09:47;;;;;;;17.05;10.88;;;;;;;;;;5051257;28;20045;-75
2023/06/29 13:12:17;;;;;;;11.63;5.97;;;;;;;;;;5052496;28;20049;-74
2023/06/29 13:14:43;;;;;;;8.02;3.95;;;;;;;;;;5052713;28;20045;-74
2023/06/29 13:17:10;;;;;;;3.58;2.90;;;;;;;;;;5051170;28;20059;-73
2023/06/29 13:19:36;;;;;;;4.93;2.60;;;;;;;;;;5037823;28;20164;-74
2023/06/29 13:22:04;;;;;;;2.22;2.03;;;;;;;;;;5053430;28;20045;-74
2023/06/29 13:24:30;;;;;;;3.40;2.35;;;;;;;;;;5041262;28;20135;-74
2023/06/29 13:26:56;;;;;;;2.95;2.00;;;;;;;;;;5052421;28;20056;-74
2023/06/29 13:29:23;;;;;;;3.25;1.95;;;;;;;;;;5053240;28;20049;-75
2023/06/29 13:31:49;;;;;;;3.92;1.90;;;;;;;;;;5048283;28;20056;-74
2023/06/29 13:34:16;;;;;;;3.30;2.05;;;;;;;;;;5053483;28;20040;-74
2023/06/29 13:36:42;;;;;;;2.25;2.00;;;;;;;;;;5050945;28;20041;-75
2023/06/29 13:39:08;;;;;;;2.50;1.85;;;;;;;;;;5047407;28;20098;-74
2023/06/29 13:41:41;;;;;;;3.05;1.90;;;;;;;;;;5051222;28;20044;-74
2023/06/29 13:44:09;;;;;;;3.60;2.20;;;;;;;;;;5050381;28;20080;-72
2023/06/29 13:46:35;;;;;;;2.75;1.80;;;;;;;;;;5047807;28;20045;-74
2023/06/29 13:49:01;;;;;;;4.10;2.15;;;;;;;;;;5053153;28;20076;-74
2023/06/29 13:51:28;;;;;;;3.30;1.80;;;;;;;;;;5041247;28;20052;-74
2023/06/29 13:53:54;;;;;;;2.40;2.05;;;;;;;;;;5041108;28;20055;-74
2023/06/29 13:56:22;;;;;;;2.35;1.70;;;;;;;;;;5051677;28;20685;-74
2023/06/29 13:58:48;;;;;;;2.80;1.70;;;;;;;;;;5052617;28;20045;-74
2023/06/29 14:01:15;;;;;;;3.00;1.65;;;;;;;;;;5048140;28;20492;-74
2023/06/29 14:03:41;;;;;;;2.50;1.70;;;;;;;;;;5053084;28;20460;-74
2023/06/29 14:06:07;;;;;;;2.88;1.70;;;;;;;;;;5039896;28;20041;-74
2023/06/29 14:08:36;;;;;;;2.63;1.50;;;;;;;;;;5047158;28;20492;-73
2023/06/29 14:11:02;;;;;;;5.28;1.90;;;;;;;;;;5052192;28;20512;-74
2023/06/29 14:13:30;;;;;;;3.42;1.95;;;;;;;;;;5048248;28;20052;-74
2023/06/29 14:15:57;;;;;;;3.90;1.80;;;;;;;;;;5049468;28;20378;-74
2023/06/29 14:18:23;;;;;;;2.42;1.83;;;;;;;;;;5047917;28;20563;-74